Time;durP1;ratioP1;P1;durP2;ratioP2;P2;SDS_P1;SDS_P2;PMS_P1;PMS_P2;Temp;Humidity;BMP_temperature;BMP_pressure;BME280_temperature;BME280_humidity;BME280_pressure;Samples;Min_cycle;Max_cycle;Signal;HPM_P1;HPM_P2
2024/01/09 00:02:17;;;;;;;2.65;2.40;;;;;;;;;;4836991;29;20066;-93
2024/01/09 00:04:43;;;;;;;3.53;2.65;;;;;;;;;;4839116;29;20477;-93
2024/01/09 00:07:09;;;;;;;4.93;2.60;;;;;;;;;;4845015;29;20041;-95
2024/01/09 00:09:35;;;;;;;5.60;3.10;;;;;;;;;;4870332;29;20119;-92
2024/01/09 00:12:01;;;;;;;5.22;2.90;;;;;;;;;;4870247;29;20045;-93
2024/01/09 00:14:28;;;;;;;6.70;3.08;;;;;;;;;;4870352;29;20057;-92
2024/01/09 00:16:54;;;;;;;4.00;2.85;;;;;;;;;;4868763;29;20093;-93
2024/01/09 00:19:20;;;;;;;7.10;2.97;;;;;;;;;;4867863;29;20132;-93
2024/01/09 00:21:47;;;;;;;5.00;2.80;;;;;;;;;;4867653;29;20089;-93
2024/01/09 00:24:13;;;;;;;4.22;2.75;;;;;;;;;;4841354;29;20121;-93
2024/01/09 00:27:05;;;;;;;4.88;2.65;;;;;;;;;;4837650;29;20046;-93
2024/01/09 00:29:34;;;;;;;3.47;2.45;;;;;;;;;;4835901;29;20049;-92
2024/01/09 00:32:00;;;;;;;4.03;2.83;;;;;;;;;;4837515;29;20049;-92
2024/01/09 00:34:27;;;;;;;4.03;2.65;;;;;;;;;;4854530;29;20064;-93
2024/01/09 00:36:53;;;;;;;3.83;2.38;;;;;;;;;;4836156;29;20059;-93
2024/01/09 00:39:21;;;;;;;3.67;2.75;;;;;;;;;;4868214;29;20140;-94
2024/01/09 00:41:50;;;;;;;3.42;2.75;;;;;;;;;;4855948;29;20053;-93
2024/01/09 00:44:16;;;;;;;4.78;3.05;;;;;;;;;;4841878;29;20087;-94
2024/01/09 00:46:48;;;;;;;5.65;2.65;;;;;;;;;;4873666;29;20105;-94
2024/01/09 00:49:14;;;;;;;7.18;2.58;;;;;;;;;;4842497;29;20049;-93
2024/01/09 00:51:48;;;;;;;3.27;2.40;;;;;;;;;;4866654;29;20041;-94
2024/01/09 00:54:15;;;;;;;6.75;2.97;;;;;;;;;;4865914;29;20053;-93
2024/01/09 00:56:47;;;;;;;3.97;3.05;;;;;;;;;;4861303;29;20041;-93
2024/01/09 00:59:16;;;;;;;8.48;2.72;;;;;;;;;;4882861;29;20065;-93
2024/01/09 01:01:44;;;;;;;5.90;2.33;;;;;;;;;;4850194;29;20056;-94
2024/01/09 01:04:18;;;;;;;7.30;3.47;;;;;;;;;;4878708;29;20057;-93
2024/01/09 01:06:47;;;;;;;3.20;2.25;;;;;;;;;;4833962;29;20086;-93
2024/01/09 01:09:22;;;;;;;2.63;2.25;;;;;;;;;;4820288;29;20062;-93
2024/01/09 01:11:50;;;;;;;14.27;3.60;;;;;;;;;;4822439;29;20087;-94
2024/01/09 01:14:28;;;;;;;4.03;3.00;;;;;;;;;;4838106;29;20531;-93
2024/01/09 01:17:04;;;;;;;5.57;3.88;;;;;;;;;;4839192;29;20046;-94
2024/01/09 01:19:33;;;;;;;3.92;2.97;;;;;;;;;;4824715;29;20056;-94
2024/01/09 01:22:00;;;;;;;5.13;2.83;;;;;;;;;;4809713;29;20062;-94
2024/01/09 01:24:26;;;;;;;4.47;2.70;;;;;;;;;;4792612;29;20059;-93
2024/01/09 01:26:52;;;;;;;5.80;2.72;;;;;;;;;;4790649;29;20629;-93
2024/01/09 01:29:18;;;;;;;4.35;3.13;;;;;;;;;;4802761;29;20084;-93
2024/01/09 01:31:45;;;;;;;3.38;2.53;;;;;;;;;;4804601;29;20055;-93
2024/01/09 01:34:12;;;;;;;5.15;2.38;;;;;;;;;;4808074;29;20058;-93
2024/01/09 01:36:38;;;;;;;3.88;2.88;;;;;;;;;;4841025;29;20068;-93
2024/01/09 01:39:04;;;;;;;3.00;2.67;;;;;;;;;;4846279;29;20053;-93
2024/01/09 01:41:30;;;;;;;3.75;2.50;;;;;;;;;;4829640;29;20061;-92
2024/01/09 01:43:56;;;;;;;4.53;2.92;;;;;;;;;;4843702;29;20060;-94
2024/01/09 01:46:22;;;;;;;6.32;2.58;;;;;;;;;;4843859;29;20077;-94
2024/01/09 01:48:50;;;;;;;6.18;3.28;;;;;;;;;;4859292;29;20052;-94
2024/01/09 01:51:16;;;;;;;4.43;2.72;;;;;;;;;;4859868;29;20504;-93
2024/01/09 01:53:42;;;;;;;3.58;2.70;;;;;;;;;;4860302;29;20078;-94
2024/01/09 01:56:09;;;;;;;3.60;2.88;;;;;;;;;;4860805;29;20081;-93
2024/01/09 01:58:35;;;;;;;7.97;2.72;;;;;;;;;;4847312;29;20143;-94
2024/01/09 02:01:01;;;;;;;7.57;2.95;;;;;;;;;;4844550;29;20507;-94
2024/01/09 02:03:30;;;;;;;4.13;2.85;;;;;;;;;;4854988;29;20045;-93
2024/01/09 02:05:56;;;;;;;5.15;3.05;;;;;;;;;;4855152;29;20050;-94
2024/01/09 02:08:24;;;;;;;2.97;2.45;;;;;;;;;;4854348;29;20499;-94
2024/01/09 02:10:51;;;;;;;4.10;3.00;;;;;;;;;;4843355;29;20045;-94
2024/01/09 02:13:20;;;;;;;4.95;2.83;;;;;;;;;;4854621;29;20522;-94
2024/01/09 02:15:46;;;;;;;5.25;2.65;;;;;;;;;;4853690;29;20053;-94
2024/01/09 02:18:13;;;;;;;6.13;2.72;;;;;;;;;;4837408;29;20045;-93
2024/01/09 02:20:39;;;;;;;7.03;3.17;;;;;;;;;;4852475;29;20045;-94
2024/01/09 02:23:05;;;;;;;3.30;2.65;;;;;;;;;;4853730;29;20526;-93
2024/01/09 02:25:33;;;;;;;9.15;3.38;;;;;;;;;;4839364;29;20053;-94
2024/01/09 02:27:59;;;;;;;3.63;3.15;;;;;;;;;;4839738;29;20071;-93
2024/01/09 02:30:26;;;;;;;14.02;3.03;;;;;;;;;;4839966;29;20455;-95
2024/01/09 02:32:52;;;;;;;7.47;3.00;;;;;;;;;;4840726;29;20050;-93
2024/01/09 02:35:21;;;;;;;5.20;2.90;;;;;;;;;;4857264;29;20045;-93
2024/01/09 02:37:50;;;;;;;4.75;3.35;;;;;;;;;;4841311;29;20056;-94
2024/01/09 02:40:16;;;;;;;4.15;2.80;;;;;;;;;;4850489;29;20090;-93
2024/01/09 02:42:44;;;;;;;3.55;2.50;;;;;;;;;;4850583;29;20526;-93
2024/01/09 02:45:13;;;;;;;7.22;2.78;;;;;;;;;;4836686;29;20045;-94
2024/01/09 02:47:39;;;;;;;6.07;3.20;;;;;;;;;;4850816;29;20148;-95
2024/01/09 02:50:08;;;;;;;4.22;2.58;;;;;;;;;;4837060;29;20050;-95
2024/01/09 02:52:34;;;;;;;3.10;2.10;;;;;;;;;;4833287;29;20046;-95
2024/01/09 02:55:06;;;;;;;6.03;2.45;;;;;;;;;;4829842;29;20053;-95
2024/01/09 02:57:32;;;;;;;4.78;3.25;;;;;;;;;;4842829;29;20163;-96
2024/01/09 03:00:00;;;;;;;4.13;3.13;;;;;;;;;;4846301;29;20038;-95
2024/01/09 03:02:29;;;;;;;5.68;3.55;;;;;;;;;;4849502;29;20128;-96
2024/01/09 03:05:21;;;;;;;6.25;3.13;;;;;;;;;;4835313;29;20056;-96
2024/01/09 03:07:57;;;;;;;4.55;2.88;;;;;;;;;;4841057;29;20064;-95
2024/01/09 03:10:37;;;;;;;6.25;3.05;;;;;;;;;;4842732;29;20053;-95
2024/01/09 03:13:24;;;;;;;4.50;3.70;;;;;;;;;;4842818;29;20073;-96
2024/01/09 03:15:59;;;;;;;4.88;2.70;;;;;;;;;;4841759;29;20550;-95
2024/01/09 03:18:55;;;;;;;3.95;3.00;;;;;;;;;;4843073;29;20062;-94
2024/01/09 03:21:37;;;;;;;2.83;2.15;;;;;;;;;;4843585;29;20050;-95
2024/01/09 03:24:17;;;;;;;4.55;2.60;;;;;;;;;;4846787;29;20053;-95
2024/01/09 03:26:53;;;;;;;5.05;2.65;;;;;;;;;;4860620;29;20407;-94
2024/01/09 03:29:39;;;;;;;5.47;2.42;;;;;;;;;;4860989;29;20101;-95
2024/01/09 03:32:18;;;;;;;5.40;3.47;;;;;;;;;;4846779;29;20049;-95
2024/01/09 03:34:55;;;;;;;3.58;3.28;;;;;;;;;;4832643;29;20052;-95
2024/01/09 03:37:22;;;;;;;8.43;3.53;;;;;;;;;;4859836;29;20071;-94
2024/01/09 03:40:09;;;;;;;4.68;2.92;;;;;;;;;;4828140;29;20110;-94
2024/01/09 03:42:37;;;;;;;4.07;3.10;;;;;;;;;;4821843;29;20091;-94
2024/01/09 03:45:03;;;;;;;8.43;3.05;;;;;;;;;;4829283;29;20054;-94
2024/01/09 03:47:29;;;;;;;9.32;2.85;;;;;;;;;;4825414;29;20422;-93
2024/01/09 03:50:03;;;;;;;4.07;3.05;;;;;;;;;;4812097;29;20064;-95
2024/01/09 03:52:32;;;;;;;4.47;2.75;;;;;;;;;;4796824;29;20613;-96
2024/01/09 03:55:04;;;;;;;4.57;2.80;;;;;;;;;;4798226;29;20046;-96
2024/01/09 03:57:33;;;;;;;4.88;2.88;;;;;;;;;;4806893;29;20054;-96
2024/01/09 04:00:01;;;;;;;3.47;2.85;;;;;;;;;;4799806;29;20062;-96
2024/01/09 04:02:33;;;;;;;4.40;2.80;;;;;;;;;;4800204;29;20058;-96
2024/01/09 04:05:10;;;;;;;5.60;2.67;;;;;;;;;;4814723;29;20045;-96
2024/01/09 04:07:36;;;;;;;4.00;2.40;;;;;;;;;;4813162;29;20054;-96
2024/01/09 04:12:59;;;;;;;4.43;2.40;;;;;;;;;;4844248;29;20167;-94
2024/01/09 04:15:32;;;;;;;4.13;3.08;;;;;;;;;;4836526;29;20131;-94
2024/01/09 04:18:06;;;;;;;4.00;2.55;;;;;;;;;;4822477;29;20050;-95
2024/01/09 04:20:32;;;;;;;4.95;3.20;;;;;;;;;;4825321;29;20062;-94
2024/01/09 04:22:58;;;;;;;4.80;2.50;;;;;;;;;;4803180;29;20054;-93
2024/01/09 04:25:24;;;;;;;5.20;2.78;;;;;;;;;;4836116;29;20061;-94
2024/01/09 04:27:50;;;;;;;3.63;2.92;;;;;;;;;;4826912;29;20050;-94
2024/01/09 04:30:17;;;;;;;5.85;3.28;;;;;;;;;;4834995;29;20069;-94
2024/01/09 04:32:43;;;;;;;3.50;2.35;;;;;;;;;;4837973;29;20137;-95
2024/01/09 04:35:15;;;;;;;3.40;2.65;;;;;;;;;;4839174;29;20081;-95
2024/01/09 04:37:41;;;;;;;5.55;2.90;;;;;;;;;;4824306;29;20079;-94
2024/01/09 04:40:10;;;;;;;3.30;2.75;;;;;;;;;;4829464;29;20145;-93
2024/01/09 04:42:44;;;;;;;4.65;3.40;;;;;;;;;;4857529;29;20104;-94
2024/01/09 04:45:10;;;;;;;7.00;3.13;;;;;;;;;;4857429;29;20049;-94
2024/01/09 04:47:37;;;;;;;3.78;3.17;;;;;;;;;;4856161;29;20064;-95
2024/01/09 04:50:03;;;;;;;5.10;3.13;;;;;;;;;;4843398;29;20057;-95
2024/01/09 04:52:29;;;;;;;7.18;3.35;;;;;;;;;;4858297;29;20050;-95
2024/01/09 04:54:55;;;;;;;3.85;2.65;;;;;;;;;;4858852;29;20049;-94
2024/01/09 04:57:22;;;;;;;4.28;2.75;;;;;;;;;;4840949;29;20042;-94
2024/01/09 04:59:49;;;;;;;3.67;2.88;;;;;;;;;;4855539;29;20046;-96
2024/01/09 05:02:21;;;;;;;3.90;2.83;;;;;;;;;;4838927;29;20053;-94
2024/01/09 05:04:47;;;;;;;4.90;3.30;;;;;;;;;;4838058;29;20046;-94
2024/01/09 05:07:18;;;;;;;7.43;3.10;;;;;;;;;;4838020;29;20080;-95
2024/01/09 05:09:49;;;;;;;5.22;3.85;;;;;;;;;;4846723;29;20056;-95
2024/01/09 05:12:18;;;;;;;4.75;3.30;;;;;;;;;;4835495;29;20500;-96
2024/01/09 05:17:42;;;;;;;6.10;2.67;;;;;;;;;;4856368;29;20475;-95
2024/01/09 05:20:12;;;;;;;4.97;2.80;;;;;;;;;;4853284;29;20383;-95
2024/01/09 05:22:41;;;;;;;5.30;3.50;;;;;;;;;;4853784;29;20113;-95
2024/01/09 05:25:08;;;;;;;5.93;3.30;;;;;;;;;;4855255;29;20495;-96
2024/01/09 05:28:02;;;;;;;7.97;3.40;;;;;;;;;;4849106;29;20073;-94
2024/01/09 05:30:33;;;;;;;4.43;3.05;;;;;;;;;;4853149;29;20060;-96
2024/01/09 05:33:24;;;;;;;11.85;3.78;;;;;;;;;;4837209;29;20109;-96
2024/01/09 05:36:30;;;;;;;6.28;4.13;;;;;;;;;;4851425;29;20109;-96
2024/01/09 05:42:08;;;;;;;6.13;3.30;;;;;;;;;;4831954;29;20058;-94
2024/01/09 05:44:34;;;;;;;3.00;2.70;;;;;;;;;;4831694;29;20082;-94
2024/01/09 05:47:06;;;;;;;6.35;3.40;;;;;;;;;;4823573;29;20050;-96
2024/01/09 05:49:50;;;;;;;6.70;3.40;;;;;;;;;;4817879;29;20046;-95
2024/01/09 05:55:56;;;;;;;5.70;3.67;;;;;;;;;;4758921;30;20066;-96
2024/01/09 05:59:03;;;;;;;10.90;3.95;;;;;;;;;;4852516;29;20101;-96
2024/01/09 06:01:37;;;;;;;4.80;3.13;;;;;;;;;;4845706;29;20057;-96
2024/01/09 06:07:20;;;;;;;6.30;3.55;;;;;;;;;;4852486;29;20053;-95
2024/01/09 06:09:47;;;;;;;5.72;3.38;;;;;;;;;;4846387;29;20106;-93
2024/01/09 06:12:13;;;;;;;6.05;3.75;;;;;;;;;;4846523;29;20499;-92
2024/01/09 06:14:40;;;;;;;7.00;4.20;;;;;;;;;;4859241;29;20053;-94
2024/01/09 06:17:06;;;;;;;5.82;4.10;;;;;;;;;;4827786;29;20049;-94
2024/01/09 06:19:32;;;;;;;6.38;3.75;;;;;;;;;;4827561;29;20054;-94
2024/01/09 06:21:58;;;;;;;5.53;4.30;;;;;;;;;;4812819;29;20057;-93
2024/01/09 06:24:24;;;;;;;5.93;4.35;;;;;;;;;;4830970;29;20078;-93
2024/01/09 06:26:50;;;;;;;5.60;4.55;;;;;;;;;;4833080;29;20077;-94
2024/01/09 06:29:26;;;;;;;4.47;3.97;;;;;;;;;;4829838;29;20108;-94
2024/01/09 06:31:52;;;;;;;4.30;3.22;;;;;;;;;;4837140;29;20042;-92
2024/01/09 06:34:35;;;;;;;5.30;3.97;;;;;;;;;;4842903;29;20735;-96
2024/01/09 06:37:07;;;;;;;7.13;4.50;;;;;;;;;;4855608;29;20052;-96
2024/01/09 06:39:42;;;;;;;6.65;3.92;;;;;;;;;;4851585;29;20517;-93
2024/01/09 06:42:26;;;;;;;6.03;4.38;;;;;;;;;;4847849;29;20080;-95
2024/01/09 06:44:58;;;;;;;7.15;4.85;;;;;;;;;;4817818;29;20058;-95
2024/01/09 06:47:24;;;;;;;5.47;3.45;;;;;;;;;;4825743;29;20049;-95
2024/01/09 06:49:50;;;;;;;5.15;3.97;;;;;;;;;;4833458;29;20057;-94
2024/01/09 06:52:16;;;;;;;6.07;3.70;;;;;;;;;;4846073;29;20042;-94
2024/01/09 06:54:42;;;;;;;7.43;3.67;;;;;;;;;;4859463;29;20049;-94
2024/01/09 06:57:08;;;;;;;4.95;4.30;;;;;;;;;;4833665;29;20129;-93
2024/01/09 06:59:34;;;;;;;5.32;3.70;;;;;;;;;;4815270;29;20061;-94
2024/01/09 07:02:01;;;;;;;9.32;3.38;;;;;;;;;;4812239;29;20403;-93
2024/01/09 07:04:27;;;;;;;3.83;3.42;;;;;;;;;;4821318;29;20575;-92
2024/01/09 07:06:53;;;;;;;4.93;3.35;;;;;;;;;;4841119;29;20090;-93
2024/01/09 07:09:19;;;;;;;5.20;3.28;;;;;;;;;;4840727;29;20046;-92
2024/01/09 07:11:45;;;;;;;6.15;4.20;;;;;;;;;;4827099;29;20046;-94
2024/01/09 07:14:11;;;;;;;5.53;3.88;;;;;;;;;;4833251;29;20053;-93
2024/01/09 07:16:38;;;;;;;4.57;3.53;;;;;;;;;;4840148;29;20064;-92
2024/01/09 07:19:04;;;;;;;5.40;3.85;;;;;;;;;;4827067;29;20058;-92
2024/01/09 07:21:30;;;;;;;5.65;3.60;;;;;;;;;;4830762;29;20045;-92
2024/01/09 07:23:56;;;;;;;5.22;3.03;;;;;;;;;;4858328;29;20077;-93
2024/01/09 07:26:22;;;;;;;3.63;2.88;;;;;;;;;;4838891;29;20046;-95
2024/01/09 07:28:48;;;;;;;7.88;3.70;;;;;;;;;;4811377;29;20042;-94
2024/01/09 07:31:14;;;;;;;5.50;4.07;;;;;;;;;;4826645;29;20071;-96
2024/01/09 07:33:41;;;;;;;7.93;3.90;;;;;;;;;;4825943;29;20054;-94
2024/01/09 07:36:07;;;;;;;6.30;3.80;;;;;;;;;;4828228;29;20053;-95
2024/01/09 07:38:33;;;;;;;5.45;3.00;;;;;;;;;;4822834;29;20057;-92
2024/01/09 07:40:59;;;;;;;6.78;3.20;;;;;;;;;;4836895;29;20413;-93
2024/01/09 07:43:25;;;;;;;3.97;2.85;;;;;;;;;;4840768;29;20061;-92
2024/01/09 07:45:51;;;;;;;6.18;3.30;;;;;;;;;;4825497;29;20050;-92
2024/01/09 07:48:17;;;;;;;4.40;3.20;;;;;;;;;;4840858;29;20057;-91
2024/01/09 07:50:43;;;;;;;4.18;3.08;;;;;;;;;;4838987;29;20056;-91
2024/01/09 07:53:09;;;;;;;5.68;3.40;;;;;;;;;;4825613;29;20066;-92
2024/01/09 07:55:36;;;;;;;4.13;3.60;;;;;;;;;;4825352;29;20132;-90
2024/01/09 07:58:02;;;;;;;4.53;3.60;;;;;;;;;;4871922;29;20045;-92
2024/01/09 08:00:28;;;;;;;6.50;3.35;;;;;;;;;;4877549;29;20055;-92
2024/01/09 08:02:54;;;;;;;4.50;3.78;;;;;;;;;;4848046;29;20502;-92
2024/01/09 08:05:20;;;;;;;5.82;3.38;;;;;;;;;;4846071;29;20050;-93
2024/01/09 08:07:46;;;;;;;6.28;3.72;;;;;;;;;;4846595;29;20056;-92
2024/01/09 08:10:12;;;;;;;5.80;3.50;;;;;;;;;;4831983;29;20049;-93
2024/01/09 08:12:38;;;;;;;7.40;3.33;;;;;;;;;;4836766;29;20504;-92
2024/01/09 08:15:05;;;;;;;3.05;2.35;;;;;;;;;;4814235;29;20050;-90
2024/01/09 08:17:31;;;;;;;3.17;2.85;;;;;;;;;;4825389;29;20046;-93
2024/01/09 08:19:57;;;;;;;7.72;3.10;;;;;;;;;;4832028;29;20058;-93
2024/01/09 08:22:23;;;;;;;5.20;3.03;;;;;;;;;;4823122;29;20056;-93
2024/01/09 08:24:49;;;;;;;6.82;3.13;;;;;;;;;;4847776;29;20144;-95
2024/01/09 08:27:15;;;;;;;7.32;4.97;;;;;;;;;;4837729;29;20053;-93
2024/01/09 08:29:43;;;;;;;6.18;3.25;;;;;;;;;;4844492;29;20410;-93
2024/01/09 08:32:11;;;;;;;5.05;3.17;;;;;;;;;;4856920;29;20050;-93
2024/01/09 08:34:37;;;;;;;5.55;4.07;;;;;;;;;;4844976;29;20100;-93
2024/01/09 08:37:03;;;;;;;7.28;3.38;;;;;;;;;;4845440;29;20204;-93
2024/01/09 08:39:29;;;;;;;5.47;3.45;;;;;;;;;;4829404;29;20529;-95
2024/01/09 08:41:55;;;;;;;6.85;3.03;;;;;;;;;;4831869;29;20053;-94
2024/01/09 08:44:23;;;;;;;5.07;3.78;;;;;;;;;;4851252;29;20406;-95
2024/01/09 08:46:49;;;;;;;4.57;2.75;;;;;;;;;;4851067;29;20498;-94
2024/01/09 08:49:16;;;;;;;4.32;3.17;;;;;;;;;;4850844;29;20053;-95
2024/01/09 08:51:44;;;;;;;6.50;3.33;;;;;;;;;;4851426;29;20060;-94
2024/01/09 08:54:10;;;;;;;5.63;3.50;;;;;;;;;;4837668;29;20053;-95
2024/01/09 08:56:36;;;;;;;6.18;3.55;;;;;;;;;;4833813;29;20049;-95
2024/01/09 08:59:07;;;;;;;5.82;3.65;;;;;;;;;;4832264;29;20476;-95
2024/01/09 09:01:35;;;;;;;6.35;3.90;;;;;;;;;;4831999;29;20046;-96
2024/01/09 09:04:04;;;;;;;6.20;3.72;;;;;;;;;;4833012;29;20113;-95
2024/01/09 09:06:31;;;;;;;5.18;3.55;;;;;;;;;;4832467;29;20364;-96
2024/01/09 09:09:27;;;;;;;;;;;;;;;;;;;;;
2024/01/09 10:28:35;;;;;;;8.13;4.90;;;;;;;;;;4873760;29;20057;-95
2024/01/09 10:34:03;;;;;;;6.88;3.72;;;;;;;;;;4846438;29;20084;-95
2024/01/09 10:36:56;;;;;;;4.50;3.38;;;;;;;;;;4838593;29;20136;-94
2024/01/09 10:39:31;;;;;;;6.25;4.38;;;;;;;;;;4825070;29;20045;-95
2024/01/09 10:42:03;;;;;;;4.95;3.03;;;;;;;;;;4802910;29;20061;-95
2024/01/09 10:44:35;;;;;;;7.53;3.03;;;;;;;;;;4822502;29;20054;-94
2024/01/09 10:47:10;;;;;;;3.70;2.78;;;;;;;;;;4837834;29;20042;-94
2024/01/09 10:49:40;;;;;;;5.13;3.13;;;;;;;;;;4820359;29;20307;-94
2024/01/09 10:52:17;;;;;;;9.25;3.72;;;;;;;;;;4817559;29;20067;-94
2024/01/09 10:54:49;;;;;;;4.05;3.00;;;;;;;;;;4816807;29;20496;-94
2024/01/09 10:57:18;;;;;;;7.05;3.88;;;;;;;;;;4817852;29;20049;-94
2024/01/09 10:59:45;;;;;;;3.47;3.00;;;;;;;;;;4819042;29;20056;-96
2024/01/09 11:02:25;;;;;;;5.15;4.15;;;;;;;;;;4818385;29;20088;-96
2024/01/09 11:04:56;;;;;;;6.78;3.50;;;;;;;;;;4815500;29;20044;-95
2024/01/09 11:07:37;;;;;;;3.95;3.20;;;;;;;;;;4812806;29;20054;-95
2024/01/09 11:10:48;;;;;;;;;;;;;;;;;;;;;
2024/01/09 11:13:47;;;;;;;6.47;3.25;;;;;;;;;;4813313;29;20068;-95
2024/01/09 11:16:20;;;;;;;4.70;2.95;;;;;;;;;;4779302;29;20444;-96
2024/01/09 11:19:04;;;;;;;5.32;3.08;;;;;;;;;;4812307;29;20054;-96
2024/01/09 11:21:30;;;;;;;5.05;3.03;;;;;;;;;;4812678;29;20049;-94
2024/01/09 11:24:00;;;;;;;4.47;3.22;;;;;;;;;;4811883;29;20065;-95
2024/01/09 11:26:29;;;;;;;5.78;3.28;;;;;;;;;;4813042;29;20061;-94
2024/01/09 11:28:57;;;;;;;2.88;2.40;;;;;;;;;;4829045;29;20049;-96
2024/01/09 11:31:24;;;;;;;5.07;2.15;;;;;;;;;;4835151;29;20067;-94
2024/01/09 11:33:54;;;;;;;4.05;2.60;;;;;;;;;;4827430;29;20594;-95
2024/01/09 11:36:33;;;;;;;3.55;2.05;;;;;;;;;;4827629;29;20566;-94
2024/01/09 11:39:04;;;;;;;2.58;2.20;;;;;;;;;;4840779;29;20079;-95
2024/01/09 11:41:31;;;;;;;3.35;2.70;;;;;;;;;;4811731;29;20140;-95
2024/01/09 11:44:02;;;;;;;2.17;1.90;;;;;;;;;;4812058;29;20054;-93
2024/01/09 11:46:29;;;;;;;3.30;2.47;;;;;;;;;;4811499;29;20057;-94
2024/01/09 11:48:55;;;;;;;2.30;1.92;;;;;;;;;;4811186;29;20050;-94
2024/01/09 11:51:22;;;;;;;5.72;2.60;;;;;;;;;;4811373;29;20403;-94
2024/01/09 11:53:49;;;;;;;4.65;2.75;;;;;;;;;;4811554;29;20050;-94
2024/01/09 11:56:16;;;;;;;3.72;3.15;;;;;;;;;;4811160;29;20140;-95
2024/01/09 11:58:43;;;;;;;5.80;3.33;;;;;;;;;;4811281;29;20132;-94
2024/01/09 12:01:19;;;;;;;7.18;3.78;;;;;;;;;;4812688;29;20045;-95
2024/01/09 12:03:55;;;;;;;7.10;3.08;;;;;;;;;;4828921;29;20057;-93
2024/01/09 12:06:22;;;;;;;7.05;3.08;;;;;;;;;;4817555;29;20046;-95
2024/01/09 12:08:49;;;;;;;5.10;3.50;;;;;;;;;;4812062;29;20114;-94
2024/01/09 12:11:16;;;;;;;5.32;3.97;;;;;;;;;;4810841;29;20050;-95
2024/01/09 12:13:44;;;;;;;4.53;3.25;;;;;;;;;;4810768;29;20042;-92
2024/01/09 12:16:21;;;;;;;5.20;3.65;;;;;;;;;;4811326;29;20058;-95
2024/01/09 12:18:58;;;;;;;;;;;;;;;;;;;;;
2024/01/09 12:21:36;;;;;;;;;;;;;;;;;;;;;
2024/01/09 12:24:32;;;;;;;;;;;;;;;;;;;;;
2024/01/09 12:28:12;;;;;;;5.88;4.03;;;;;;;;;;4826264;29;20132;-93
2024/01/09 12:30:23;;;;;;;7.03;3.35;;;;;;;;;;4814527;29;20470;-95
2024/01/09 12:33:17;;;;;;;3.90;3.03;;;;;;;;;;4812117;29;20057;-96
2024/01/09 12:35:49;;;;;;;4.05;3.55;;;;;;;;;;4796560;29;20053;-95
2024/01/09 12:38:18;;;;;;;6.75;3.28;;;;;;;;;;4810782;29;20465;-96
2024/01/09 12:40:44;;;;;;;5.45;3.47;;;;;;;;;;4826474;29;20089;-96
2024/01/09 12:43:11;;;;;;;5.00;3.40;;;;;;;;;;4811703;29;20049;-95
2024/01/09 12:45:41;;;;;;;6.43;3.70;;;;;;;;;;4811776;29;20050;-95
2024/01/09 12:48:10;;;;;;;3.40;2.28;;;;;;;;;;4813155;29;20057;-95
2024/01/09 12:50:36;;;;;;;7.03;3.63;;;;;;;;;;4814639;29;20054;-96
2024/01/09 12:53:03;;;;;;;4.97;3.58;;;;;;;;;;4820279;29;20057;-96
2024/01/09 12:55:29;;;;;;;6.15;3.83;;;;;;;;;;4819594;29;20259;-92
2024/01/09 12:57:57;;;;;;;6.63;3.78;;;;;;;;;;4820831;29;20522;-96
2024/01/09 13:00:23;;;;;;;6.15;3.50;;;;;;;;;;4822179;29;20147;-96
2024/01/09 13:02:50;;;;;;;3.97;3.10;;;;;;;;;;4822896;29;20500;-94
2024/01/09 13:05:18;;;;;;;4.00;3.10;;;;;;;;;;4824010;29;20090;-96
2024/01/09 13:07:45;;;;;;;4.68;3.33;;;;;;;;;;4825931;29;20492;-96
2024/01/09 13:10:11;;;;;;;4.43;3.40;;;;;;;;;;4827800;29;20061;-96
2024/01/09 13:12:38;;;;;;;5.13;2.97;;;;;;;;;;4853774;29;20399;-96
2024/01/09 13:15:04;;;;;;;3.30;2.58;;;;;;;;;;4827655;29;20068;-95
2024/01/09 13:17:31;;;;;;;6.05;3.20;;;;;;;;;;4829556;29;20057;-94
2024/01/09 13:19:57;;;;;;;7.03;3.42;;;;;;;;;;4828910;29;20058;-95
2024/01/09 13:22:25;;;;;;;3.45;2.40;;;;;;;;;;4829024;29;20054;-96
2024/01/09 13:24:51;;;;;;;5.30;3.40;;;;;;;;;;4815661;29;20110;-96
2024/01/09 13:27:17;;;;;;;4.43;3.13;;;;;;;;;;4831829;29;20117;-96
2024/01/09 13:29:44;;;;;;;4.03;2.85;;;;;;;;;;4817341;29;20060;-96
2024/01/09 13:32:10;;;;;;;4.43;2.95;;;;;;;;;;4832840;29;20049;-94
2024/01/09 13:34:36;;;;;;;6.60;2.80;;;;;;;;;;4832682;29;20439;-94
2024/01/09 13:37:02;;;;;;;5.07;2.92;;;;;;;;;;4818385;29;20054;-94
2024/01/09 13:39:28;;;;;;;4.38;2.90;;;;;;;;;;4830439;29;20049;-94
2024/01/09 13:41:55;;;;;;;4.93;2.95;;;;;;;;;;4826501;29;20050;-94
2024/01/09 13:44:21;;;;;;;12.90;3.30;;;;;;;;;;4825070;29;20042;-95
2024/01/09 13:46:51;;;;;;;3.55;2.60;;;;;;;;;;4827452;29;20054;-94
2024/01/09 13:49:17;;;;;;;4.90;2.55;;;;;;;;;;4859237;29;20102;-94
2024/01/09 13:51:44;;;;;;;2.65;2.33;;;;;;;;;;4858330;29;20494;-94
2024/01/09 13:54:10;;;;;;;4.70;2.67;;;;;;;;;;4883043;23;20158;-94
2024/01/09 13:56:42;;;;;;;3.83;2.72;;;;;;;;;;4856435;29;20050;-96
2024/01/09 13:59:10;;;;;;;2.80;2.50;;;;;;;;;;4892799;23;20129;-94
2024/01/09 14:01:46;;;;;;;2.47;2.28;;;;;;;;;;4855631;29;20077;-94
2024/01/09 14:04:15;;;;;;;10.13;3.15;;;;;;;;;;4846481;29;20060;-95
2024/01/09 14:06:49;;;;;;;2.97;2.35;;;;;;;;;;4841802;29;20081;-94
2024/01/09 14:09:19;;;;;;;3.47;2.42;;;;;;;;;;4879490;23;20538;-95
2024/01/09 14:11:48;;;;;;;5.67;2.33;;;;;;;;;;4874697;29;20060;-94
2024/01/09 14:14:15;;;;;;;4.32;3.05;;;;;;;;;;4829123;29;20049;-94
2024/01/09 14:16:41;;;;;;;3.17;2.38;;;;;;;;;;4870712;23;20034;-93
2024/01/09 14:19:11;;;;;;;4.07;2.50;;;;;;;;;;4881024;23;20061;-94
2024/01/09 14:21:37;;;;;;;3.70;2.35;;;;;;;;;;4923239;23;20065;-94
2024/01/09 14:24:04;;;;;;;3.13;2.50;;;;;;;;;;4882635;23;20049;-94
2024/01/09 14:26:31;;;;;;;3.05;2.75;;;;;;;;;;4932579;23;20064;-94
2024/01/09 14:28:58;;;;;;;2.65;2.35;;;;;;;;;;4861997;29;20116;-95
2024/01/09 14:31:24;;;;;;;3.92;2.70;;;;;;;;;;4879398;29;20082;-94
2024/01/09 14:33:50;;;;;;;3.38;2.50;;;;;;;;;;4915914;23;20061;-95
2024/01/09 14:36:18;;;;;;;4.85;3.03;;;;;;;;;;4876444;23;20060;-95
2024/01/09 14:38:47;;;;;;;5.45;2.63;;;;;;;;;;4885438;23;20057;-94
2024/01/09 14:41:15;;;;;;;3.55;2.20;;;;;;;;;;4865406;29;20045;-94
2024/01/09 14:43:41;;;;;;;2.53;2.03;;;;;;;;;;4891604;23;20053;-95
2024/01/09 14:46:07;;;;;;;3.13;2.25;;;;;;;;;;4858933;24;20045;-95
2024/01/09 14:48:34;;;;;;;3.35;2.85;;;;;;;;;;4872605;29;20085;-94
2024/01/09 14:51:01;;;;;;;2.78;2.20;;;;;;;;;;4883686;23;20065;-96
2024/01/09 14:53:27;;;;;;;5.53;2.28;;;;;;;;;;4879813;23;20041;-93
2024/01/09 14:55:54;;;;;;;3.40;2.80;;;;;;;;;;4861141;29;20062;-93
2024/01/09 14:58:20;;;;;;;2.70;2.47;;;;;;;;;;4884297;23;20075;-95
2024/01/09 15:00:46;;;;;;;5.80;3.30;;;;;;;;;;4867011;23;20068;-95
2024/01/09 15:03:16;;;;;;;6.15;2.50;;;;;;;;;;4876964;29;20094;-93
2024/01/09 15:05:43;;;;;;;4.35;2.60;;;;;;;;;;4885475;23;20060;-94
2024/01/09 15:08:12;;;;;;;4.40;3.17;;;;;;;;;;4872634;29;20037;-95
2024/01/09 15:10:45;;;;;;;2.88;2.42;;;;;;;;;;4871969;29;20041;-94
2024/01/09 15:13:17;;;;;;;3.17;2.22;;;;;;;;;;4888292;23;20057;-94
2024/01/09 15:15:57;;;;;;;5.00;3.03;;;;;;;;;;4851789;29;20065;-94
2024/01/09 15:26:07;;;;;;;3.70;2.80;;;;;;;;;;4878398;29;20052;-94
2024/01/09 15:28:36;;;;;;;3.55;2.83;;;;;;;;;;4912618;23;20032;-95
2024/01/09 15:31:06;;;;;;;5.20;2.60;;;;;;;;;;4833954;29;20054;-94
2024/01/09 15:33:32;;;;;;;3.60;2.63;;;;;;;;;;4846332;29;20061;-94
2024/01/09 15:35:58;;;;;;;4.50;3.35;;;;;;;;;;4848810;29;20045;-94
2024/01/09 15:38:25;;;;;;;11.65;2.67;;;;;;;;;;4832817;29;20072;-94
2024/01/09 15:40:54;;;;;;;6.22;3.45;;;;;;;;;;4846162;29;20087;-94
2024/01/09 15:43:25;;;;;;;3.58;2.55;;;;;;;;;;4878999;23;20038;-95
2024/01/09 15:45:52;;;;;;;3.13;2.72;;;;;;;;;;4862541;29;20057;-94
2024/01/09 15:48:21;;;;;;;4.75;2.78;;;;;;;;;;4879269;29;20048;-93
2024/01/09 15:50:48;;;;;;;3.50;2.92;;;;;;;;;;4860054;29;20061;-94
2024/01/09 15:53:17;;;;;;;5.97;3.13;;;;;;;;;;4861057;29;20107;-94
2024/01/09 15:55:43;;;;;;;5.65;3.50;;;;;;;;;;4872803;29;20052;-94
2024/01/09 15:58:15;;;;;;;6.03;3.55;;;;;;;;;;4871366;24;20057;-94
2024/01/09 16:01:16;;;;;;;5.88;3.25;;;;;;;;;;4828451;29;20058;-95
2024/01/09 16:08:42;;;;;;;;;;;;;;;;;;;;;
2024/01/09 16:20:12;;;;;;;;;;;-1.20;99.90;;;;;;4895327;29;20049;-95
2024/01/09 16:23:05;;;;;;;5.93;3.58;;;;;;;;;;4847482;29;19931;-95
2024/01/09 16:25:31;;;;;;;7.65;4.93;;;;;;;;;;4849128;29;20045;-94
2024/01/09 16:28:07;;;;;;;15.23;5.63;;;;;;;;;;4879603;29;20045;-95
2024/01/09 16:30:39;;;;;;;17.50;6.28;;;;;;;;;;4862992;29;20045;-94
2024/01/09 16:33:06;;;;;;;12.98;6.63;;;;;;;;;;4888066;29;20076;-93
2024/01/09 16:35:32;;;;;;;17.65;5.93;;;;;;;;;;4859108;29;20487;-95
2024/01/09 16:37:59;;;;;;;32.05;10.10;;;;;;;;;;4851802;29;20636;-96
2024/01/09 16:40:25;;;;;;;26.05;9.80;;;;;;;;;;4822459;29;20053;-96
2024/01/09 16:42:51;;;;;;;18.33;8.05;;;;;;;;;;4805610;29;20053;-95
2024/01/09 16:45:17;;;;;;;17.45;7.97;;;;;;;;;;4841718;29;20062;-95
2024/01/09 16:47:43;;;;;;;15.40;6.65;;;;;;;;;;4842950;29;20052;-95
2024/01/09 16:50:10;;;;;;;18.13;8.40;;;;;;;;;;4837882;29;20056;-95
2024/01/09 16:52:36;;;;;;;17.42;8.10;;;;;;;;;;4851771;29;20041;-94
2024/01/09 16:55:02;;;;;;;14.48;7.53;;;;;;;;;;4836415;29;20143;-96
2024/01/09 16:57:28;;;;;;;14.45;6.78;;;;;;;;;;4832776;29;20042;-95
2024/01/09 16:59:54;;;;;;;16.10;8.57;;;;;;;;;;4834206;29;20045;-94
2024/01/09 17:02:22;;;;;;;15.77;8.02;;;;;;;;;;4845816;29;20061;-94